Kezdőlap
METAR-TAF:

METAR-TAF

Repülőterek :

Malmö, Svédország

Malmői repülőtér

földrajzi szélesség: 55-33N, földrajzi hosszúság: 013-22E, magasság: 106 m

Jelenlegi meteorológiai megfigyelések

A jelentés 25 perccel ezelõtt készült, 08:50 UTC
Kelet-északkeleti szél 7 kt
Hőmérséklet 6°C
Páratartalom 93%
Légköri nyomás 1015 hPa
Látótávolság 10 km, vagy több
Kevés felhő 1300 lábon
Szórványos felhőzet 3100 lábon
enyhe szitálás

METAR: ESMS 290850Z 07007KT 9999 -DZ FEW013 SCT031 06/05 Q1015

Idő: 11:15 (09:15 UTC)

Előrejelzés

A jelentés 4 órával és 15 perccel ezelõtt készült, 05:00 UTC
Az előrejelzés 29-én 06 óra UTC és 30-én 06 óra UTC között érvényes
Keleti szél 8 kt
Látótávolság 10 km, vagy több
Szórványos felhőzet 3000 lábon
29-én 10 óra UTC és 29-én 21 óra UTC között ideiglenes
Szórványos felhőzet 1500 lábon, Cumulonimbus.
záporok

TAF: ESMS 290500Z 2906/3006 09008KT 9999 SCT030 TEMPO 2910/2921 SHRA SCT015CB

Meteorológiai megfigyelések és előrejelzések több, mint 4000 repülőtéren (METAR és TAF jelentéseket).

A térképen piros és sárga pontok jelzik az elérhető meteorológiai állomásokat.

Mozgassa az egeret a pont fölött, hogy megjelenjen az állomás neve.

Azután kattintson az időjárási megfigyelések és előrejelzések megtekintéséhez.

A térkép megváltoztatása: kattintson a fekete keresztel jelölt zöld gombra ráközelítéshez, a vonallal jelölt zöld gombra távolításhoz, vagy a zöld nyilakra a szomszédos térképek eléréséhez.


METAR-TAF: